sensor_id;sensor_type;location;lat;lon;timestamp;temperature;humidity
36004;DHT22;24526;50.918;5.360;2022-07-10T00:00:28;18.00;92.50
36004;DHT22;24526;50.918;5.360;2022-07-10T00:03:22;18.10;92.50
36004;DHT22;24526;50.918;5.360;2022-07-10T00:05:48;18.00;92.60
36004;DHT22;24526;50.918;5.360;2022-07-10T00:08:14;18.10;92.20
36004;DHT22;24526;50.918;5.360;2022-07-10T00:10:43;18.10;92.10
36004;DHT22;24526;50.918;5.360;2022-07-10T00:13:16;17.90;92.30
36004;DHT22;24526;50.918;5.360;2022-07-10T00:15:42;17.80;92.60
36004;DHT22;24526;50.918;5.360;2022-07-10T00:18:28;17.80;92.70
36004;DHT22;24526;50.918;5.360;2022-07-10T00:20:53;17.80;92.90
36004;DHT22;24526;50.918;5.360;2022-07-10T00:23:19;17.70;93.00
36004;DHT22;24526;50.918;5.360;2022-07-10T00:25:45;17.90;93.00
36004;DHT22;24526;50.918;5.360;2022-07-10T00:28:11;17.90;93.10
36004;DHT22;24526;50.918;5.360;2022-07-10T00:30:37;17.70;93.10
36004;DHT22;24526;50.918;5.360;2022-07-10T00:33:03;17.60;93.30
36004;DHT22;24526;50.918;5.360;2022-07-10T00:35:29;17.60;93.50
36004;DHT22;24526;50.918;5.360;2022-07-10T00:38:01;17.70;93.40
36004;DHT22;24526;50.918;5.360;2022-07-10T00:40:26;17.70;93.30
36004;DHT22;24526;50.918;5.360;2022-07-10T00:42:55;17.70;93.50
36004;DHT22;24526;50.918;5.360;2022-07-10T00:45:24;17.70;93.50
36004;DHT22;24526;50.918;5.360;2022-07-10T00:47:49;17.70;93.30
36004;DHT22;24526;50.918;5.360;2022-07-10T00:50:15;17.70;93.70
36004;DHT22;24526;50.918;5.360;2022-07-10T00:52:43;17.50;93.80
36004;DHT22;24526;50.918;5.360;2022-07-10T00:55:09;17.50;94.00
36004;DHT22;24526;50.918;5.360;2022-07-10T00:57:37;17.40;94.30
36004;DHT22;24526;50.918;5.360;2022-07-10T01:00:07;17.30;94.50
36004;DHT22;24526;50.918;5.360;2022-07-10T01:02:32;17.40;94.20
36004;DHT22;24526;50.918;5.360;2022-07-10T01:04:58;17.30;94.40
36004;DHT22;24526;50.918;5.360;2022-07-10T01:07:25;17.30;94.30
36004;DHT22;24526;50.918;5.360;2022-07-10T01:09:51;17.20;94.40
36004;DHT22;24526;50.918;5.360;2022-07-10T01:12:16;17.20;94.60
36004;DHT22;24526;50.918;5.360;2022-07-10T01:14:42;17.40;94.70
36004;DHT22;24526;50.918;5.360;2022-07-10T01:17:07;17.30;94.70
36004;DHT22;24526;50.918;5.360;2022-07-10T01:19:42;17.20;94.80
36004;DHT22;24526;50.918;5.360;2022-07-10T01:22:08;17.20;94.80
36004;DHT22;24526;50.918;5.360;2022-07-10T01:24:34;17.10;95.00
36004;DHT22;24526;50.918;5.360;2022-07-10T01:27:05;17.10;95.10
36004;DHT22;24526;50.918;5.360;2022-07-10T01:29:33;17.00;95.30
36004;DHT22;24526;50.918;5.360;2022-07-10T01:32:00;17.00;95.40
36004;DHT22;24526;50.918;5.360;2022-07-10T01:34:27;17.00;95.40
36004;DHT22;24526;50.918;5.360;2022-07-10T01:36:55;17.00;95.50
36004;DHT22;24526;50.918;5.360;2022-07-10T01:39:28;16.90;95.40
36004;DHT22;24526;50.918;5.360;2022-07-10T01:41:54;16.90;95.30
36004;DHT22;24526;50.918;5.360;2022-07-10T01:44:19;17.00;95.30
36004;DHT22;24526;50.918;5.360;2022-07-10T01:46:45;17.00;95.30
36004;DHT22;24526;50.918;5.360;2022-07-10T01:49:14;17.00;95.20
36004;DHT22;24526;50.918;5.360;2022-07-10T01:51:39;17.00;94.90
36004;DHT22;24526;50.918;5.360;2022-07-10T01:54:05;16.90;95.10
36004;DHT22;24526;50.918;5.360;2022-07-10T01:56:31;16.80;95.40
36004;DHT22;24526;50.918;5.360;2022-07-10T01:58:56;16.70;95.50
36004;DHT22;24526;50.918;5.360;2022-07-10T02:01:22;16.60;95.70
36004;DHT22;24526;50.918;5.360;2022-07-10T02:03:47;16.60;95.70
36004;DHT22;24526;50.918;5.360;2022-07-10T02:06:32;16.50;95.80
36004;DHT22;24526;50.918;5.360;2022-07-10T02:08:57;16.50;96.00
36004;DHT22;24526;50.918;5.360;2022-07-10T02:11:23;16.40;96.10
36004;DHT22;24526;50.918;5.360;2022-07-10T02:13:48;16.40;96.40
36004;DHT22;24526;50.918;5.360;2022-07-10T02:16:16;16.40;96.40
36004;DHT22;24526;50.918;5.360;2022-07-10T02:18:42;16.50;96.60
36004;DHT22;24526;50.918;5.360;2022-07-10T02:21:08;16.40;96.80
36004;DHT22;24526;50.918;5.360;2022-07-10T02:23:35;16.30;96.90
36004;DHT22;24526;50.918;5.360;2022-07-10T02:26:01;16.20;97.20
36004;DHT22;24526;50.918;5.360;2022-07-10T02:28:29;16.20;97.20
36004;DHT22;24526;50.918;5.360;2022-07-10T02:30:55;16.20;97.30
36004;DHT22;24526;50.918;5.360;2022-07-10T02:33:24;16.30;97.30
36004;DHT22;24526;50.918;5.360;2022-07-10T02:35:52;16.30;97.50
36004;DHT22;24526;50.918;5.360;2022-07-10T02:38:18;16.30;97.60
36004;DHT22;24526;50.918;5.360;2022-07-10T02:40:43;16.40;97.50
36004;DHT22;24526;50.918;5.360;2022-07-10T02:43:09;16.30;97.50
36004;DHT22;24526;50.918;5.360;2022-07-10T02:45:37;16.30;97.60
36004;DHT22;24526;50.918;5.360;2022-07-10T02:48:05;16.30;97.80
36004;DHT22;24526;50.918;5.360;2022-07-10T02:50:31;16.30;97.80
36004;DHT22;24526;50.918;5.360;2022-07-10T02:52:56;16.40;97.60
36004;DHT22;24526;50.918;5.360;2022-07-10T02:55:25;16.40;97.60
36004;DHT22;24526;50.918;5.360;2022-07-10T02:57:53;16.40;97.40
36004;DHT22;24526;50.918;5.360;2022-07-10T03:00:19;16.30;97.70
36004;DHT22;24526;50.918;5.360;2022-07-10T03:02:45;16.20;98.00
36004;DHT22;24526;50.918;5.360;2022-07-10T03:05:10;16.20;98.20
36004;DHT22;24526;50.918;5.360;2022-07-10T03:07:36;16.10;98.50
36004;DHT22;24526;50.918;5.360;2022-07-10T03:10:01;16.10;98.70
36004;DHT22;24526;50.918;5.360;2022-07-10T03:12:27;16.00;99.10
36004;DHT22;24526;50.918;5.360;2022-07-10T03:14:53;15.90;99.30
36004;DHT22;24526;50.918;5.360;2022-07-10T03:17:18;15.90;99.30
36004;DHT22;24526;50.918;5.360;2022-07-10T03:19:44;15.90;99.50
36004;DHT22;24526;50.918;5.360;2022-07-10T03:22:10;15.90;99.60
36004;DHT22;24526;50.918;5.360;2022-07-10T03:24:35;15.80;99.70
36004;DHT22;24526;50.918;5.360;2022-07-10T03:27:01;15.80;99.80
36004;DHT22;24526;50.918;5.360;2022-07-10T03:29:27;15.80;99.70
36004;DHT22;24526;50.918;5.360;2022-07-10T03:31:53;15.90;99.60
36004;DHT22;24526;50.918;5.360;2022-07-10T03:34:18;15.90;99.70
36004;DHT22;24526;50.918;5.360;2022-07-10T03:36:44;15.80;99.80
36004;DHT22;24526;50.918;5.360;2022-07-10T03:39:12;15.70;99.90
36004;DHT22;24526;50.918;5.360;2022-07-10T03:41:38;15.60;99.90
36004;DHT22;24526;50.918;5.360;2022-07-10T03:44:03;15.50;99.90
36004;DHT22;24526;50.918;5.360;2022-07-10T03:46:31;15.50;99.90
36004;DHT22;24526;50.918;5.360;2022-07-10T03:48:56;15.50;99.90
36004;DHT22;24526;50.918;5.360;2022-07-10T03:51:22;15.60;99.90
36004;DHT22;24526;50.918;5.360;2022-07-10T03:53:47;15.60;99.90
36004;DHT22;24526;50.918;5.360;2022-07-10T03:56:13;15.60;99.90
36004;DHT22;24526;50.918;5.360;2022-07-10T03:58:59;15.60;99.90
36004;DHT22;24526;50.918;5.360;2022-07-10T04:01:24;15.50;99.90
36004;DHT22;24526;50.918;5.360;2022-07-10T04:03:50;15.50;99.90
36004;DHT22;24526;50.918;5.360;2022-07-10T04:06:18;15.30;99.90
36004;DHT22;24526;50.918;5.360;2022-07-10T04:08:46;15.30;99.90
36004;DHT22;24526;50.918;5.360;2022-07-10T04:11:12;15.20;99.90
36004;DHT22;24526;50.918;5.360;2022-07-10T04:13:38;15.10;99.90
36004;DHT22;24526;50.918;5.360;2022-07-10T04:16:03;15.10;99.90
36004;DHT22;24526;50.918;5.360;2022-07-10T04:18:29;15.20;99.90
36004;DHT22;24526;50.918;5.360;2022-07-10T04:20:55;15.30;99.90
36004;DHT22;24526;50.918;5.360;2022-07-10T04:23:20;15.40;99.90
36004;DHT22;24526;50.918;5.360;2022-07-10T04:25:46;15.50;99.90
36004;DHT22;24526;50.918;5.360;2022-07-10T04:28:11;15.50;99.90
36004;DHT22;24526;50.918;5.360;2022-07-10T04:30:37;15.50;99.90
36004;DHT22;24526;50.918;5.360;2022-07-10T04:33:03;15.40;99.90
36004;DHT22;24526;50.918;5.360;2022-07-10T04:35:31;15.50;99.90
36004;DHT22;24526;50.918;5.360;2022-07-10T04:37:56;15.60;99.90
36004;DHT22;24526;50.918;5.360;2022-07-10T04:40:22;15.60;99.90
36004;DHT22;24526;50.918;5.360;2022-07-10T04:42:48;15.60;99.90
36004;DHT22;24526;50.918;5.360;2022-07-10T04:45:13;15.60;99.90
36004;DHT22;24526;50.918;5.360;2022-07-10T04:47:41;15.60;99.90
36004;DHT22;24526;50.918;5.360;2022-07-10T04:50:09;15.50;99.90
36004;DHT22;24526;50.918;5.360;2022-07-10T04:52:35;15.50;99.90
36004;DHT22;24526;50.918;5.360;2022-07-10T04:55:01;15.40;99.90
36004;DHT22;24526;50.918;5.360;2022-07-10T04:57:29;15.40;99.90
36004;DHT22;24526;50.918;5.360;2022-07-10T04:59:55;15.40;99.90
36004;DHT22;24526;50.918;5.360;2022-07-10T05:02:22;15.40;99.90
36004;DHT22;24526;50.918;5.360;2022-07-10T05:04:50;15.50;99.90
36004;DHT22;24526;50.918;5.360;2022-07-10T05:07:16;15.50;99.90
36004;DHT22;24526;50.918;5.360;2022-07-10T05:09:45;15.70;99.90
36004;DHT22;24526;50.918;5.360;2022-07-10T05:12:10;15.70;99.90
36004;DHT22;24526;50.918;5.360;2022-07-10T05:14:39;15.80;99.90
36004;DHT22;24526;50.918;5.360;2022-07-10T05:17:07;15.90;99.90
36004;DHT22;24526;50.918;5.360;2022-07-10T05:19:33;16.00;99.90
36004;DHT22;24526;50.918;5.360;2022-07-10T05:21:58;16.10;99.90
36004;DHT22;24526;50.918;5.360;2022-07-10T05:24:24;16.20;99.90
36004;DHT22;24526;50.918;5.360;2022-07-10T05:27:09;16.30;99.90
36004;DHT22;24526;50.918;5.360;2022-07-10T05:29:35;16.30;99.90
36004;DHT22;24526;50.918;5.360;2022-07-10T05:32:00;16.40;99.90
36004;DHT22;24526;50.918;5.360;2022-07-10T05:34:29;16.50;99.90
36004;DHT22;24526;50.918;5.360;2022-07-10T05:36:55;16.50;99.90
36004;DHT22;24526;50.918;5.360;2022-07-10T05:39:24;16.70;99.90
36004;DHT22;24526;50.918;5.360;2022-07-10T05:41:53;16.60;99.90
36004;DHT22;24526;50.918;5.360;2022-07-10T05:44:21;16.80;99.90
36004;DHT22;24526;50.918;5.360;2022-07-10T05:46:49;17.00;99.90
36004;DHT22;24526;50.918;5.360;2022-07-10T05:49:17;17.10;99.90
36004;DHT22;24526;50.918;5.360;2022-07-10T05:51:42;17.00;99.90
36004;DHT22;24526;50.918;5.360;2022-07-10T05:54:08;17.10;99.90
36004;DHT22;24526;50.918;5.360;2022-07-10T05:56:36;17.20;99.90
36004;DHT22;24526;50.918;5.360;2022-07-10T05:59:02;17.20;99.90
36004;DHT22;24526;50.918;5.360;2022-07-10T06:01:31;17.30;99.90
36004;DHT22;24526;50.918;5.360;2022-07-10T06:03:56;17.40;99.90
36004;DHT22;24526;50.918;5.360;2022-07-10T06:06:22;17.50;99.90
36004;DHT22;24526;50.918;5.360;2022-07-10T06:08:48;17.50;99.90
36004;DHT22;24526;50.918;5.360;2022-07-10T06:11:14;17.70;99.90
36004;DHT22;24526;50.918;5.360;2022-07-10T06:13:45;17.60;99.90
36004;DHT22;24526;50.918;5.360;2022-07-10T06:16:15;17.50;99.90
36004;DHT22;24526;50.918;5.360;2022-07-10T06:18:44;17.60;99.90
36004;DHT22;24526;50.918;5.360;2022-07-10T06:21:12;17.70;99.90
36004;DHT22;24526;50.918;5.360;2022-07-10T06:23:39;17.70;99.90
36004;DHT22;24526;50.918;5.360;2022-07-10T06:26:04;17.80;99.90
36004;DHT22;24526;50.918;5.360;2022-07-10T06:28:30;17.80;99.90
36004;DHT22;24526;50.918;5.360;2022-07-10T06:30:56;17.90;99.90
36004;DHT22;24526;50.918;5.360;2022-07-10T06:33:22;18.00;99.90
36004;DHT22;24526;50.918;5.360;2022-07-10T06:35:47;18.00;99.90
36004;DHT22;24526;50.918;5.360;2022-07-10T06:38:13;18.20;99.90
36004;DHT22;24526;50.918;5.360;2022-07-10T06:40:38;18.20;99.90
36004;DHT22;24526;50.918;5.360;2022-07-10T06:43:04;18.20;99.70
36004;DHT22;24526;50.918;5.360;2022-07-10T06:45:32;18.20;99.90
36004;DHT22;24526;50.918;5.360;2022-07-10T06:48:01;18.30;99.90
36004;DHT22;24526;50.918;5.360;2022-07-10T06:50:33;18.30;99.60
36004;DHT22;24526;50.918;5.360;2022-07-10T06:53:02;18.60;99.20
36004;DHT22;24526;50.918;5.360;2022-07-10T06:55:28;18.70;98.80
36004;DHT22;24526;50.918;5.360;2022-07-10T06:57:54;18.80;98.80
36004;DHT22;24526;50.918;5.360;2022-07-10T07:00:21;19.00;98.40
36004;DHT22;24526;50.918;5.360;2022-07-10T07:02:50;19.20;98.00
36004;DHT22;24526;50.918;5.360;2022-07-10T07:05:16;19.40;97.40
36004;DHT22;24526;50.918;5.360;2022-07-10T07:07:42;19.50;97.10
36004;DHT22;24526;50.918;5.360;2022-07-10T07:10:28;19.70;97.20
36004;DHT22;24526;50.918;5.360;2022-07-10T07:12:54;19.90;96.80
36004;DHT22;24526;50.918;5.360;2022-07-10T07:15:19;20.00;96.40
36004;DHT22;24526;50.918;5.360;2022-07-10T07:17:49;20.10;96.30
36004;DHT22;24526;50.918;5.360;2022-07-10T07:20:36;20.10;96.50
36004;DHT22;24526;50.918;5.360;2022-07-10T07:23:21;20.20;96.10
36004;DHT22;24526;50.918;5.360;2022-07-10T07:25:46;20.40;95.70
36004;DHT22;24526;50.918;5.360;2022-07-10T07:28:12;20.50;95.40
36004;DHT22;24526;50.918;5.360;2022-07-10T07:30:42;20.60;95.00
36004;DHT22;24526;50.918;5.360;2022-07-10T07:33:09;20.60;95.20
36004;DHT22;24526;50.918;5.360;2022-07-10T07:35:34;20.70;95.30
36004;DHT22;24526;50.918;5.360;2022-07-10T07:38:00;20.90;95.00
36004;DHT22;24526;50.918;5.360;2022-07-10T07:40:26;21.10;94.80
36004;DHT22;24526;50.918;5.360;2022-07-10T07:42:53;21.10;94.30
36004;DHT22;24526;50.918;5.360;2022-07-10T07:45:19;21.20;93.80
36004;DHT22;24526;50.918;5.360;2022-07-10T07:48:06;21.30;93.10
36004;DHT22;24526;50.918;5.360;2022-07-10T07:50:32;21.40;92.60
36004;DHT22;24526;50.918;5.360;2022-07-10T07:52:58;21.40;92.30
36004;DHT22;24526;50.918;5.360;2022-07-10T07:55:28;21.60;92.30
36004;DHT22;24526;50.918;5.360;2022-07-10T07:57:55;21.70;91.20
36004;DHT22;24526;50.918;5.360;2022-07-10T08:00:21;21.70;91.10
36004;DHT22;24526;50.918;5.360;2022-07-10T08:02:50;21.60;90.10
36004;DHT22;24526;50.918;5.360;2022-07-10T08:05:17;21.70;89.70
36004;DHT22;24526;50.918;5.360;2022-07-10T08:07:44;21.90;90.00
36004;DHT22;24526;50.918;5.360;2022-07-10T08:10:11;22.10;90.10
36004;DHT22;24526;50.918;5.360;2022-07-10T08:12:39;22.10;90.10
36004;DHT22;24526;50.918;5.360;2022-07-10T08:15:09;22.20;89.90
36004;DHT22;24526;50.918;5.360;2022-07-10T08:17:35;22.30;89.90
36004;DHT22;24526;50.918;5.360;2022-07-10T08:20:02;22.30;89.70
36004;DHT22;24526;50.918;5.360;2022-07-10T08:22:28;22.10;89.00
36004;DHT22;24526;50.918;5.360;2022-07-10T08:24:57;22.10;89.60
36004;DHT22;24526;50.918;5.360;2022-07-10T08:27:23;22.10;89.70
36004;DHT22;24526;50.918;5.360;2022-07-10T08:29:49;22.00;89.70
36004;DHT22;24526;50.918;5.360;2022-07-10T08:32:14;21.90;89.90
36004;DHT22;24526;50.918;5.360;2022-07-10T08:34:40;21.90;90.00
36004;DHT22;24526;50.918;5.360;2022-07-10T08:37:09;21.70;89.90
36004;DHT22;24526;50.918;5.360;2022-07-10T08:39:37;21.60;90.10
36004;DHT22;24526;50.918;5.360;2022-07-10T08:42:10;21.60;90.10
36004;DHT22;24526;50.918;5.360;2022-07-10T08:44:38;21.70;90.00
36004;DHT22;24526;50.918;5.360;2022-07-10T08:47:07;21.80;88.90
36004;DHT22;24526;50.918;5.360;2022-07-10T08:49:32;21.90;89.30
36004;DHT22;24526;50.918;5.360;2022-07-10T08:52:04;21.80;90.00
36004;DHT22;24526;50.918;5.360;2022-07-10T08:54:32;21.70;90.10
36004;DHT22;24526;50.918;5.360;2022-07-10T08:57:02;21.70;90.30
36004;DHT22;24526;50.918;5.360;2022-07-10T08:59:31;21.60;90.50
36004;DHT22;24526;50.918;5.360;2022-07-10T09:01:57;21.60;90.50
36004;DHT22;24526;50.918;5.360;2022-07-10T09:04:26;21.70;90.40
36004;DHT22;24526;50.918;5.360;2022-07-10T09:06:52;21.80;90.90
36004;DHT22;24526;50.918;5.360;2022-07-10T09:09:19;22.10;90.20
36004;DHT22;24526;50.918;5.360;2022-07-10T09:11:47;22.20;89.30
36004;DHT22;24526;50.918;5.360;2022-07-10T09:14:15;22.30;89.70
36004;DHT22;24526;50.918;5.360;2022-07-10T09:16:43;22.20;89.40
36004;DHT22;24526;50.918;5.360;2022-07-10T09:21:41;22.20;90.40
36004;DHT22;24526;50.918;5.360;2022-07-10T09:24:07;22.10;90.10
36004;DHT22;24526;50.918;5.360;2022-07-10T09:26:33;22.00;90.40
36004;DHT22;24526;50.918;5.360;2022-07-10T09:29:05;22.10;89.60
36004;DHT22;24526;50.918;5.360;2022-07-10T09:31:47;22.10;88.40
36004;DHT22;24526;50.918;5.360;2022-07-10T09:34:13;22.10;88.90
36004;DHT22;24526;50.918;5.360;2022-07-10T09:37:19;22.20;89.10
36004;DHT22;24526;50.918;5.360;2022-07-10T09:47:37;22.50;89.10
36004;DHT22;24526;50.918;5.360;2022-07-10T09:50:03;22.50;88.80
36004;DHT22;24526;50.918;5.360;2022-07-10T09:52:28;22.60;88.80
36004;DHT22;24526;50.918;5.360;2022-07-10T09:54:54;22.60;89.00
36004;DHT22;24526;50.918;5.360;2022-07-10T09:57:22;22.70;88.10
36004;DHT22;24526;50.918;5.360;2022-07-10T09:59:50;22.70;87.10
36004;DHT22;24526;50.918;5.360;2022-07-10T10:02:16;22.50;87.30
36004;DHT22;24526;50.918;5.360;2022-07-10T10:04:42;22.30;87.90
36004;DHT22;24526;50.918;5.360;2022-07-10T10:07:09;22.20;89.60
36004;DHT22;24526;50.918;5.360;2022-07-10T10:09:38;22.10;90.30
36004;DHT22;24526;50.918;5.360;2022-07-10T10:12:27;22.30;90.40
36004;DHT22;24526;50.918;5.360;2022-07-10T10:14:55;22.10;89.40
36004;DHT22;24526;50.918;5.360;2022-07-10T10:17:22;22.00;90.50
36004;DHT22;24526;50.918;5.360;2022-07-10T10:19:50;22.00;90.50
36004;DHT22;24526;50.918;5.360;2022-07-10T10:22:35;22.00;90.20
36004;DHT22;24526;50.918;5.360;2022-07-10T10:25:04;22.00;90.60
36004;DHT22;24526;50.918;5.360;2022-07-10T10:27:30;21.90;90.60
36004;DHT22;24526;50.918;5.360;2022-07-10T10:29:58;21.90;91.10
36004;DHT22;24526;50.918;5.360;2022-07-10T10:32:25;21.80;90.80
36004;DHT22;24526;50.918;5.360;2022-07-10T10:34:52;21.70;91.30
36004;DHT22;24526;50.918;5.360;2022-07-10T10:37:38;21.70;91.30
36004;DHT22;24526;50.918;5.360;2022-07-10T10:40:09;21.90;91.20
36004;DHT22;24526;50.918;5.360;2022-07-10T10:42:39;22.00;91.00
36004;DHT22;24526;50.918;5.360;2022-07-10T10:48:01;22.20;91.20
36004;DHT22;24526;50.918;5.360;2022-07-10T10:53:19;22.30;90.80
36004;DHT22;24526;50.918;5.360;2022-07-10T11:01:05;22.30;90.80
36004;DHT22;24526;50.918;5.360;2022-07-10T11:03:31;22.20;91.00
36004;DHT22;24526;50.918;5.360;2022-07-10T11:05:57;22.20;90.80
36004;DHT22;24526;50.918;5.360;2022-07-10T11:08:40;22.20;91.00
36004;DHT22;24526;50.918;5.360;2022-07-10T11:14:08;22.50;91.30
36004;DHT22;24526;50.918;5.360;2022-07-10T11:16:45;22.70;91.30
36004;DHT22;24526;50.918;5.360;2022-07-10T11:19:11;22.80;90.80
36004;DHT22;24526;50.918;5.360;2022-07-10T11:21:41;22.90;90.60
36004;DHT22;24526;50.918;5.360;2022-07-10T11:25:00;23.00;89.50
36004;DHT22;24526;50.918;5.360;2022-07-10T11:27:09;22.90;90.20
36004;DHT22;24526;50.918;5.360;2022-07-10T11:29:38;22.90;90.40
36004;DHT22;24526;50.918;5.360;2022-07-10T11:32:04;22.80;90.20
36004;DHT22;24526;50.918;5.360;2022-07-10T11:34:34;22.80;90.10
36004;DHT22;24526;50.918;5.360;2022-07-10T11:37:02;22.70;90.50
36004;DHT22;24526;50.918;5.360;2022-07-10T11:39:28;22.70;90.60
36004;DHT22;24526;50.918;5.360;2022-07-10T11:41:54;22.50;90.90
36004;DHT22;24526;50.918;5.360;2022-07-10T11:44:24;22.40;91.30
36004;DHT22;24526;50.918;5.360;2022-07-10T11:46:49;22.40;91.60
36004;DHT22;24526;50.918;5.360;2022-07-10T11:49:18;22.30;91.60
36004;DHT22;24526;50.918;5.360;2022-07-10T11:51:49;22.30;91.20
36004;DHT22;24526;50.918;5.360;2022-07-10T11:54:15;22.30;91.60
36004;DHT22;24526;50.918;5.360;2022-07-10T11:56:45;22.50;91.60
36004;DHT22;24526;50.918;5.360;2022-07-10T11:59:12;22.50;91.00
36004;DHT22;24526;50.918;5.360;2022-07-10T12:01:46;22.70;90.90
36004;DHT22;24526;50.918;5.360;2022-07-10T12:04:13;23.10;91.20
36004;DHT22;24526;50.918;5.360;2022-07-10T12:06:42;23.30;90.40
36004;DHT22;24526;50.918;5.360;2022-07-10T12:09:09;23.40;89.00
36004;DHT22;24526;50.918;5.360;2022-07-10T12:11:35;23.60;90.00
36004;DHT22;24526;50.918;5.360;2022-07-10T12:14:13;23.70;90.00
36004;DHT22;24526;50.918;5.360;2022-07-10T12:16:50;23.80;89.80
36004;DHT22;24526;50.918;5.360;2022-07-10T12:19:20;24.20;88.60
36004;DHT22;24526;50.918;5.360;2022-07-10T12:21:47;24.50;88.10
36004;DHT22;24526;50.918;5.360;2022-07-10T12:24:15;24.70;85.40
36004;DHT22;24526;50.918;5.360;2022-07-10T12:26:47;24.90;84.00
36004;DHT22;24526;50.918;5.360;2022-07-10T12:29:26;25.20;82.50
36004;DHT22;24526;50.918;5.360;2022-07-10T12:31:52;25.10;83.10
36004;DHT22;24526;50.918;5.360;2022-07-10T12:34:57;25.00;85.00
36004;DHT22;24526;50.918;5.360;2022-07-10T12:37:18;25.00;83.70
36004;DHT22;24526;50.918;5.360;2022-07-10T12:39:51;25.00;84.00
36004;DHT22;24526;50.918;5.360;2022-07-10T12:42:25;25.00;84.10
36004;DHT22;24526;50.918;5.360;2022-07-10T12:44:51;25.00;83.70
36004;DHT22;24526;50.918;5.360;2022-07-10T12:47:20;25.20;82.50
36004;DHT22;24526;50.918;5.360;2022-07-10T12:52:25;25.30;83.50
36004;DHT22;24526;50.918;5.360;2022-07-10T12:58:03;25.50;83.60
36004;DHT22;24526;50.918;5.360;2022-07-10T13:00:31;25.60;82.30
36004;DHT22;24526;50.918;5.360;2022-07-10T13:02:59;25.60;81.80
36004;DHT22;24526;50.918;5.360;2022-07-10T13:05:27;25.50;82.20
36004;DHT22;24526;50.918;5.360;2022-07-10T13:08:09;25.50;83.60
36004;DHT22;24526;50.918;5.360;2022-07-10T13:10:49;25.80;82.50
36004;DHT22;24526;50.918;5.360;2022-07-10T13:13:14;26.80;80.60
36004;DHT22;24526;50.918;5.360;2022-07-10T13:15:42;27.40;77.20
36004;DHT22;24526;50.918;5.360;2022-07-10T13:18:27;28.20;76.30
36004;DHT22;24526;50.918;5.360;2022-07-10T13:20:54;28.80;72.70
36004;DHT22;24526;50.918;5.360;2022-07-10T13:23:23;28.60;72.00
36004;DHT22;24526;50.918;5.360;2022-07-10T13:25:50;28.60;72.50
36004;DHT22;24526;50.918;5.360;2022-07-10T13:28:19;28.90;71.30
36004;DHT22;24526;50.918;5.360;2022-07-10T13:30:45;29.20;71.10
36004;DHT22;24526;50.918;5.360;2022-07-10T13:33:12;29.30;69.70
36004;DHT22;24526;50.918;5.360;2022-07-10T13:35:37;28.90;71.50
36004;DHT22;24526;50.918;5.360;2022-07-10T13:38:06;28.60;72.50
36004;DHT22;24526;50.918;5.360;2022-07-10T13:40:33;28.30;72.30
36004;DHT22;24526;50.918;5.360;2022-07-10T13:43:01;27.90;72.30
36004;DHT22;24526;50.918;5.360;2022-07-10T13:45:27;27.50;73.80
36004;DHT22;24526;50.918;5.360;2022-07-10T13:48:12;27.30;74.80
36004;DHT22;24526;50.918;5.360;2022-07-10T13:50:57;26.90;76.20
36004;DHT22;24526;50.918;5.360;2022-07-10T13:53:43;26.40;75.30
36004;DHT22;24526;50.918;5.360;2022-07-10T13:56:28;25.90;76.70
36004;DHT22;24526;50.918;5.360;2022-07-10T13:58:58;25.80;77.30
36004;DHT22;24526;50.918;5.360;2022-07-10T14:01:26;25.70;77.80
36004;DHT22;24526;50.918;5.360;2022-07-10T14:03:57;25.70;79.30
36004;DHT22;24526;50.918;5.360;2022-07-10T14:06:26;25.80;78.90
36004;DHT22;24526;50.918;5.360;2022-07-10T14:08:52;25.90;78.80
36004;DHT22;24526;50.918;5.360;2022-07-10T14:11:17;26.10;78.10
36004;DHT22;24526;50.918;5.360;2022-07-10T14:14:02;26.30;77.30
36004;DHT22;24526;50.918;5.360;2022-07-10T14:16:31;26.50;77.70
36004;DHT22;24526;50.918;5.360;2022-07-10T14:18:56;26.50;78.00
36004;DHT22;24526;50.918;5.360;2022-07-10T14:21:25;26.60;77.20
36004;DHT22;24526;50.918;5.360;2022-07-10T14:23:54;26.50;76.90
36004;DHT22;24526;50.918;5.360;2022-07-10T14:26:21;26.50;77.40
36004;DHT22;24526;50.918;5.360;2022-07-10T14:28:48;26.50;78.10
36004;DHT22;24526;50.918;5.360;2022-07-10T14:31:17;26.50;77.50
36004;DHT22;24526;50.918;5.360;2022-07-10T14:33:43;26.30;77.20
36004;DHT22;24526;50.918;5.360;2022-07-10T14:36:28;26.20;78.10
36004;DHT22;24526;50.918;5.360;2022-07-10T14:38:57;26.10;78.60
36004;DHT22;24526;50.918;5.360;2022-07-10T14:41:23;26.00;80.70
36004;DHT22;24526;50.918;5.360;2022-07-10T14:43:49;25.90;81.10
36004;DHT22;24526;50.918;5.360;2022-07-10T14:46:35;25.90;80.30
36004;DHT22;24526;50.918;5.360;2022-07-10T14:49:01;26.00;78.60
36004;DHT22;24526;50.918;5.360;2022-07-10T14:51:27;25.90;77.50
36004;DHT22;24526;50.918;5.360;2022-07-10T14:53:56;25.90;79.40
36004;DHT22;24526;50.918;5.360;2022-07-10T14:56:22;25.90;79.40
36004;DHT22;24526;50.918;5.360;2022-07-10T14:58:48;26.00;79.00
36004;DHT22;24526;50.918;5.360;2022-07-10T15:01:16;25.90;80.90
36004;DHT22;24526;50.918;5.360;2022-07-10T15:03:42;25.80;79.70
36004;DHT22;24526;50.918;5.360;2022-07-10T15:06:08;25.50;81.00
36004;DHT22;24526;50.918;5.360;2022-07-10T15:08:34;25.40;82.00
36004;DHT22;24526;50.918;5.360;2022-07-10T15:11:02;25.40;81.70
36004;DHT22;24526;50.918;5.360;2022-07-10T15:13:30;25.40;81.90
36004;DHT22;24526;50.918;5.360;2022-07-10T15:16:01;25.30;83.10
36004;DHT22;24526;50.918;5.360;2022-07-10T15:18:27;25.20;81.30
36004;DHT22;24526;50.918;5.360;2022-07-10T15:20:52;25.00;82.20
36004;DHT22;24526;50.918;5.360;2022-07-10T15:23:22;24.90;82.50
36004;DHT22;24526;50.918;5.360;2022-07-10T15:25:47;24.80;82.70
36004;DHT22;24526;50.918;5.360;2022-07-10T15:28:33;24.80;83.40
36004;DHT22;24526;50.918;5.360;2022-07-10T15:30:59;24.60;84.50
36004;DHT22;24526;50.918;5.360;2022-07-10T15:33:26;24.50;84.10
36004;DHT22;24526;50.918;5.360;2022-07-10T15:35:58;24.40;84.00
36004;DHT22;24526;50.918;5.360;2022-07-10T15:38:31;24.40;85.60
36004;DHT22;24526;50.918;5.360;2022-07-10T15:40:59;24.30;85.80
36004;DHT22;24526;50.918;5.360;2022-07-10T15:43:32;24.40;86.00
36004;DHT22;24526;50.918;5.360;2022-07-10T15:46:01;24.50;84.40
36004;DHT22;24526;50.918;5.360;2022-07-10T15:48:27;24.50;83.90
36004;DHT22;24526;50.918;5.360;2022-07-10T15:50:53;24.40;83.70
36004;DHT22;24526;50.918;5.360;2022-07-10T15:53:19;24.30;84.80
36004;DHT22;24526;50.918;5.360;2022-07-10T15:55:48;24.40;85.00
36004;DHT22;24526;50.918;5.360;2022-07-10T15:58:13;24.60;85.20
36004;DHT22;24526;50.918;5.360;2022-07-10T16:00:39;24.60;84.70
36004;DHT22;24526;50.918;5.360;2022-07-10T16:03:08;24.60;84.50
36004;DHT22;24526;50.918;5.360;2022-07-10T16:05:34;24.50;84.60
36004;DHT22;24526;50.918;5.360;2022-07-10T16:08:02;24.50;85.30